Timeline UpdatesTrip UpdatesNews PostsPvt PostsTravel TipsAdmin PostsConv PostsFollowed PostsChat RequestsBlog PostsPNR Posts

Disclaimer
Search
 
 
Thu Apr 17, 2014 04:24:50 ISTHomeTrainsΣChainsAtlasPNRForumGalleryNewsFAQTripsMembersLoginFeedback
No Recent News for this Train
Other Trains in the News **new
Latest...
Short originate from Purulia on 9/2/14 #989532
Sun Feb 09, 2014 (01:56PM)
⇐ Return Journey: Train# 68019

68020/Dhanbad-Jhargram MEMU

Feb 27 2014 (11:10PM)
Change Departure Station:
Change Arrival Station:
Post a Train Travel TipPost a Train Travel Tip **new
Post a Comment/Question/Picture/VideoPost a Comment/Question/Picture/Video
Inaugural Run
Wed May 18, 2011
Pantry/Catering
✕ NO Pantry Car
✕ NO Catering
RSA - Rake Sharing
Rake/Coach Composition
.
Loco
News    PNR    Forum    Time-Table    Availability    Fare Chart    Map    Arr/Dep History    Trips    Gallery    ΣChains    X/O    Timeline    
Travel Time: 2h 35m    13 halts    Distance: 107 km    Avg Speed: 41 km/hr
Type: MEMU
Zone: SER/South Eastern
Departs @ 19:15 (Avg 8m late)
Platform# ???
SMTWTF 
Gamharia/GMH 
Arrives @ 21:50 (Avg 4m late)
Platform# ???
SMTWTF 
Jhargram/JGM 

13 halts. 13 intermediate Stations between Gamharia and Jhargram

Show ALL intermediate Stations  Show Old Time-Table

#CodeStation NameX/OArrivesAvgDepartsAvgHaltPFDay#KmSpeedElevZoneAddress
1DHNDhanbad Junction (8)  -14:20+7--1-189.130235mECR2319801. Div. HQ ECR, Jharkhand
2KDSKusunda Junction  14:28+714:29+101m--1-185.133218mECRKusunda, Jharkhand
3BZEBaseria  14:33-14:34-1m--1-182.931210mECRBaseria, Jharkhand
4BZSBansjora  14:38+714:39+91m--1-180.838212mECRDhanbad, Jharkhand
5SJASijua  14:43+614:44+91m--1-178.318206mECRSijua, Jharkhand
6ANJEAngarpathra HaltX  14:48-14:49-1m--1-177.118204mECRAngarpathra, Jharkhand
7KTHKatrasgarh (1)  14:55+614:57+82m11-175.438198mECRKatrasgarh, Jharkhand
8TNJETentulla  15:01-15:02-1m--1-172.822196mECRTentulla, Jharkhand
9SZESonardih  15:06+615:07+91m--1-171.422197mECRSonardih, Jharkhand
10TNOTundu  15:11-15:12-1m--1-169.940198mECRTundu, Jharkhand
11BDQBudora  15:15-15:16-1m--1-167.917210mECRBudora, Jharkhand
12PLJEPhulwartanr (2)  15:19+615:20+81m21-167.050219mECRPhulwartanr, Jharkhand
13JMXJamuni  15:23-15:24-1m--1-164.56204mECRJamuni, Jharkhand
14JNNAJamuniatanr Halt (1)  15:28+715:29+81m11-164.145182mECRNational Highway 32, Jharkhand
15DNHDeonagar  15:33-15:34-1m--1-161.112223mECRDeonagar, Jharkhand
16CRPChandrapura Junction (2)  15:48+515:50+132m--1-158.228227mECR06549-242555, Jharkhand
17RJBRajabera  15:59+1116:00+111m--1-154.132198mECRStation Rd, Jharkhand
18TKBTupkadih (3)X  16:09+1616:10+161m--1-149.340233mSERBokaro, Jharkhand
19BKSCBokaro Steel City (3)  16:20+1016:22+102m21-142.750245mSER06542-253861, Jharkhand
20RDFRadhagaon (3)  16:30+1416:31+141m--1-136.086247mSERPundag Railway Station Rd, Jharkhand
21PNWPundhag (3)X  16:38+1516:39+151m21-126.048291mSERDist - Puruliya -723215, West Bengal
22GUGGarh Jaipur  17:02+1417:03+141m--1-107.689292mSERJaipur, West Bengal
23CASChas Road (1)  17:09+1417:10+141m11-98.766291mSERNational Highway 32, West Bengal
24GTDGourinathdham (1)  17:15+1417:16+151m11-93.247277mSERNational Highway 32, West Bengal
25PRRPurulia Junction (4)  17:35+1017:37+102m--1-78.260240mSERPurulia, West Bengal
26TAOTamna  17:44+1317:45+131m--1-71.179236mSERNational Highway 32, West Bengal
27KTDKantadih  17:51+1317:52+131m--1-63.281274mSERNational Highway 32, West Bengal
28URMAUrma  17:58+1417:59+131m--1-55.187266mSERNational Highway 32, West Bengal
29BBMBarabhumX  18:05+1418:06+141m--1-46.466229mSERBalarampur, West Bengal
30BRMDBiramdih  18:11+1418:12+141m--1-40.982263mSERNational Highway 32, West Bengal
31NIMNimdih  18:18+1518:19+151m--1-32.832209mSERNational Highway 32, Jharkhand
32CNIChandil Junction (4)  18:35+1018:36+101m--1-24.151178mSERChandil, Jharkhand
33MIKManikul (2)X  18:43+1418:44+141m--1-18.251170mSERJharkhand 832401, Jharkhand
34KZUKunki (2)X  18:50+1418:51+141m--1-13.132163mSERNational Highway 33, Jharkhand
35KNDKandra (4)  18:57+1218:58+121m--1-9.937176mSERJamshedpur, Jharkhand
36GMH»Gamharia (3)»X  19:14+819:15+81m--10.040165mSERJamshedpur, Jharkhand
37ADTPAdityapur (3)  19:24+1019:25+101m--16.028152mSERJamshedpur, Jharkhand
38TATATatanagar Junction (5)  19:35+619:45+610m--110.726164mSER91-657-2423026, Jharkhand
39SLJRSalga JhariX  19:50-19:51-1m--112.856179mSERJamshedpur, Jharkhand
40ASBAsanboniX  20:02+1820:03+181m--123.182129mSEREast Singhbhum, Jharkhand
41RHERakha Mines  20:08+1720:09+171m--130.059118mSEREast Singhbhum, Jharkhand
42GUDGaludih (4)X  20:16+1620:17+161m--136.975120mSEREast Singhbhum, Jharkhand
43GTSGhatsila (3)  20:25+1520:26+151m--146.966103mSEREast Singhbhum, Jharkhand
44DVMDhalbhumgarhX  20:37+1620:38+171m--158.978115mSERDhalbhumgarh, Jharkhand
45KKPRKokpara  20:46+1520:47+161m--169.361102mSEREast Singhbhum District, Jharkhand
46CKUChakulia  20:55+1520:56+161m--177.460126mSERChakulia, Jharkhand
47KNMKanimahuli  21:02+1421:03+161m--183.465110mSERState Highway 4, West Bengal
48GIIGidni (3)  21:10+1521:11+161m--191.06283mSERState Highway 4, West Bengal
49KATBKhatkura  21:18+421:19+61m--198.21679mSERState Highway 4, West Bengal
50JGM•Jhargram (4)•  21:50+4---1106.6-82mSERJhargram, West Bengal
Scroll to Top
Scroll to Bottom